createdAt,value
2018-11-10T00:00:19.740Z,6.80
2018-11-10T00:02:49.148Z,6.80
2018-11-10T00:05:18.402Z,6.80
2018-11-10T00:07:46.732Z,6.70
2018-11-10T00:10:17.976Z,6.70
2018-11-10T00:12:46.718Z,6.70
2018-11-10T00:15:15.768Z,6.70
2018-11-10T00:17:44.108Z,6.70
2018-11-10T00:20:13.802Z,6.70
2018-11-10T00:22:42.573Z,6.60
2018-11-10T00:25:14.284Z,6.60
2018-11-10T00:27:43.743Z,6.70
2018-11-10T00:30:15.837Z,6.70
2018-11-10T00:32:44.913Z,6.70
2018-11-10T00:35:14.682Z,6.70
2018-11-10T00:37:43.160Z,6.70
2018-11-10T00:40:15.063Z,6.70
2018-11-10T00:42:43.746Z,6.70
2018-11-10T00:45:13.773Z,6.60
2018-11-10T00:47:42.090Z,6.50
2018-11-10T00:50:13.270Z,6.50
2018-11-10T00:52:41.763Z,6.40
2018-11-10T00:55:11.833Z,6.40
2018-11-10T00:57:40.175Z,6.40
2018-11-10T01:00:11.569Z,6.40
2018-11-10T01:02:40.092Z,6.40
2018-11-10T01:05:09.878Z,6.40
2018-11-10T01:07:38.467Z,6.30
2018-11-10T01:10:09.065Z,6.20
2018-11-10T01:12:37.420Z,6.20
2018-11-10T01:15:08.304Z,6.10
2018-11-10T01:17:36.615Z,6.00
2018-11-10T01:20:05.071Z,6.00
2018-11-10T01:22:33.403Z,6.00
2018-11-10T01:25:01.748Z,6.00
2018-11-10T01:27:30.092Z,6.00
2018-11-10T01:29:58.406Z,6.00
2018-11-10T01:32:26.779Z,6.00
2018-11-10T01:34:55.138Z,6.00
2018-11-10T01:37:23.456Z,5.90
2018-11-10T01:39:51.777Z,6.00
2018-11-10T01:42:20.113Z,6.00
2018-11-10T01:44:48.494Z,5.90
2018-11-10T01:47:16.847Z,5.90
2018-11-10T01:49:45.207Z,6.00
2018-11-10T01:52:13.552Z,6.00
2018-11-10T01:54:41.862Z,6.10
2018-11-10T01:57:10.170Z,6.10
2018-11-10T01:59:38.488Z,6.10
2018-11-10T02:02:06.899Z,6.10
2018-11-10T02:04:35.307Z,6.10
2018-11-10T02:07:03.647Z,6.20
2018-11-10T02:09:31.975Z,6.20
2018-11-10T02:12:00.286Z,6.30
2018-11-10T02:14:28.623Z,6.30
2018-11-10T02:16:57.043Z,6.20
2018-11-10T02:19:25.385Z,6.20
2018-11-10T02:21:53.720Z,6.20
2018-11-10T02:24:22.034Z,6.20
2018-11-10T02:26:50.324Z,6.20
2018-11-10T02:29:18.672Z,6.20
2018-11-10T02:31:46.976Z,6.20
2018-11-10T02:34:15.298Z,6.30
2018-11-10T02:36:43.611Z,6.30
2018-11-10T02:39:11.908Z,6.30
2018-11-10T02:41:40.196Z,6.40
2018-11-10T02:44:08.515Z,6.40
2018-11-10T02:46:36.847Z,6.50
2018-11-10T02:49:05.395Z,6.50
2018-11-10T02:51:33.708Z,6.50
2018-11-10T02:54:02.031Z,6.40
2018-11-10T02:56:30.348Z,6.40
2018-11-10T02:58:58.764Z,6.40
2018-11-10T03:01:27.079Z,6.50
2018-11-10T03:03:55.380Z,6.60
2018-11-10T03:06:23.732Z,6.60
2018-11-10T03:08:52.036Z,6.70
2018-11-10T03:11:20.391Z,6.70
2018-11-10T03:13:48.714Z,6.80
2018-11-10T03:16:17.044Z,6.80
2018-11-10T03:18:45.390Z,6.90
2018-11-10T03:21:13.703Z,6.90
2018-11-10T03:23:42.018Z,7.00
2018-11-10T03:26:11.085Z,7.00
2018-11-10T03:28:39.523Z,7.00
2018-11-10T03:31:07.846Z,7.00
2018-11-10T03:33:36.135Z,7.10
2018-11-10T03:36:04.481Z,7.10
2018-11-10T03:38:32.776Z,7.10
2018-11-10T03:41:01.216Z,7.20
2018-11-10T03:43:29.535Z,7.20
2018-11-10T03:45:57.843Z,7.30
2018-11-10T03:48:26.193Z,7.20
2018-11-10T03:50:54.519Z,7.20
2018-11-10T03:53:22.836Z,7.30
2018-11-10T03:55:51.163Z,7.30
2018-11-10T03:58:19.495Z,7.20
2018-11-10T04:00:47.802Z,7.20
2018-11-10T04:03:16.123Z,7.30
2018-11-10T04:05:44.430Z,7.30
2018-11-10T04:08:12.976Z,7.30
2018-11-10T04:10:41.328Z,7.30
2018-11-10T04:13:09.644Z,7.30
2018-11-10T04:15:37.926Z,7.30
2018-11-10T04:18:06.497Z,7.40
2018-11-10T04:20:34.834Z,7.40
2018-11-10T04:23:03.164Z,7.50
2018-11-10T04:25:31.460Z,7.50
2018-11-10T04:27:59.797Z,7.50
2018-11-10T04:30:28.122Z,7.50
2018-11-10T04:32:56.452Z,7.50
2018-11-10T04:35:24.775Z,7.40
2018-11-10T04:37:53.071Z,7.40
2018-11-10T04:40:21.462Z,7.40
2018-11-10T04:42:49.752Z,7.40
2018-11-10T04:45:18.126Z,7.40
2018-11-10T04:47:46.436Z,7.30
2018-11-10T04:50:18.505Z,7.30
2018-11-10T04:52:46.833Z,7.30
2018-11-10T04:55:15.827Z,7.40
2018-11-10T04:57:44.148Z,7.40
2018-11-10T05:00:16.381Z,7.40
2018-11-10T05:02:45.547Z,7.30
2018-11-10T05:05:14.989Z,7.10
2018-11-10T05:07:43.317Z,7.00
2018-11-10T05:10:15.054Z,6.80
2018-11-10T05:12:43.375Z,6.80
2018-11-10T05:15:13.587Z,6.50
2018-11-10T05:17:42.029Z,6.50
2018-11-10T05:20:12.232Z,6.50
2018-11-10T05:22:40.555Z,6.60
2018-11-10T05:25:11.102Z,6.50
2018-11-10T05:27:39.442Z,6.50
2018-11-10T05:30:09.533Z,6.50
2018-11-10T05:32:37.837Z,6.50
2018-11-10T05:35:07.855Z,6.50
2018-11-10T05:37:36.366Z,6.50
2018-11-10T05:40:05.576Z,6.60
2018-11-10T05:42:33.942Z,6.50
2018-11-10T05:45:02.268Z,6.50
2018-11-10T05:47:30.550Z,6.50
2018-11-10T05:49:58.991Z,6.60
2018-11-10T05:52:27.306Z,6.60
2018-11-10T05:54:55.643Z,6.50
2018-11-10T05:57:23.958Z,6.40
2018-11-10T05:59:52.261Z,6.40
2018-11-10T06:02:20.647Z,6.30
2018-11-10T06:04:49.148Z,6.30
2018-11-10T06:07:17.468Z,6.20
2018-11-10T06:09:45.869Z,6.20
2018-11-10T06:12:14.186Z,6.20
2018-11-10T06:14:42.570Z,6.10
2018-11-10T06:17:10.901Z,6.10
2018-11-10T06:19:39.327Z,6.10
2018-11-10T06:22:07.631Z,6.10
2018-11-10T06:24:35.979Z,6.20
2018-11-10T06:27:04.302Z,6.20
2018-11-10T06:29:32.715Z,6.20
2018-11-10T06:32:01.035Z,6.20
2018-11-10T06:34:29.442Z,6.20
2018-11-10T06:36:57.752Z,6.20
2018-11-10T06:39:26.054Z,6.30
2018-11-10T06:41:54.366Z,6.30
2018-11-10T06:44:22.723Z,6.30
2018-11-10T06:46:51.105Z,6.30
2018-11-10T06:49:19.415Z,6.30
2018-11-10T06:51:47.830Z,6.40
2018-11-10T06:54:16.211Z,6.50
2018-11-10T06:56:44.532Z,6.50
2018-11-10T06:59:12.855Z,6.60
2018-11-10T07:01:41.166Z,6.70
2018-11-10T07:04:10.120Z,6.90
2018-11-10T07:06:38.475Z,7.00
2018-11-10T07:09:08.911Z,7.00
2018-11-10T07:11:37.247Z,7.10
2018-11-10T07:14:06.106Z,7.20
2018-11-10T07:16:34.442Z,7.40
2018-11-10T07:19:02.883Z,7.70
2018-11-10T07:21:31.221Z,7.80
2018-11-10T07:23:59.514Z,8.00
2018-11-10T07:26:27.812Z,8.20
2018-11-10T07:28:56.122Z,8.40
2018-11-10T07:31:24.475Z,8.50
2018-11-10T07:33:52.778Z,8.80
2018-11-10T07:36:21.143Z,9.10
2018-11-10T07:38:49.446Z,9.10
2018-11-10T07:41:17.739Z,9.40
2018-11-10T07:43:46.162Z,9.90
2018-11-10T07:46:14.518Z,10.50
2018-11-10T07:48:42.823Z,11.30
2018-11-10T07:51:11.191Z,12.50
2018-11-10T07:53:39.515Z,14.10
2018-11-10T07:56:08.221Z,16.60
2018-11-10T07:58:36.605Z,18.70
2018-11-10T08:01:05.177Z,20.50
2018-11-10T08:03:33.480Z,21.70
2018-11-10T08:06:01.814Z,22.10
2018-11-10T08:08:30.133Z,21.20
2018-11-10T08:10:58.453Z,19.80
2018-11-10T08:13:26.764Z,18.80
2018-11-10T08:15:55.116Z,17.80
2018-11-10T08:18:23.542Z,17.00
2018-11-10T08:20:51.820Z,16.30
2018-11-10T08:23:20.160Z,15.80
2018-11-10T08:25:48.530Z,15.40
2018-11-10T08:28:16.843Z,15.10
2018-11-10T08:30:45.158Z,14.90
2018-11-10T08:33:13.499Z,15.00
2018-11-10T08:35:41.865Z,14.70
2018-11-10T08:38:11.013Z,14.70
2018-11-10T08:40:39.327Z,14.90
2018-11-10T08:43:07.654Z,15.10
2018-11-10T08:45:36.053Z,15.10
2018-11-10T08:48:04.454Z,15.20
2018-11-10T08:50:32.762Z,15.10
2018-11-10T08:53:01.117Z,14.90
2018-11-10T08:55:29.426Z,15.10
2018-11-10T08:57:57.744Z,15.10
2018-11-10T09:00:26.072Z,15.20
2018-11-10T09:02:54.404Z,15.10
2018-11-10T09:05:22.724Z,15.20
2018-11-10T09:07:51.012Z,15.40
2018-11-10T09:10:21.454Z,15.40
2018-11-10T09:12:49.761Z,16.00
2018-11-10T09:15:18.154Z,17.20
2018-11-10T09:17:46.472Z,18.10
2018-11-10T09:20:17.504Z,18.30
2018-11-10T09:22:45.846Z,18.80
2018-11-10T09:25:16.274Z,18.60
2018-11-10T09:27:44.580Z,18.50
2018-11-10T09:30:15.973Z,18.20
2018-11-10T09:32:44.297Z,17.60
2018-11-10T09:35:14.448Z,17.10
2018-11-10T09:37:42.775Z,16.80
2018-11-10T09:40:18.847Z,16.50
2018-11-10T09:42:47.286Z,16.10
2018-11-10T09:45:17.230Z,15.80
2018-11-10T09:47:45.504Z,15.60
2018-11-10T09:50:19.411Z,15.60
2018-11-10T09:52:47.815Z,15.80
2018-11-10T09:55:16.985Z,16.10
2018-11-10T09:57:45.348Z,16.00
2018-11-10T10:00:19.994Z,16.00
2018-11-10T10:02:48.731Z,16.30
2018-11-10T10:05:16.782Z,16.80
2018-11-10T10:07:45.469Z,17.00
2018-11-10T10:10:17.974Z,17.00
2018-11-10T10:12:46.592Z,16.90
2018-11-10T10:15:17.203Z,17.00
2018-11-10T10:17:46.016Z,17.30
2018-11-10T10:20:20.098Z,17.60
2018-11-10T10:22:49.330Z,18.30
2018-11-10T10:25:18.403Z,18.80
2018-11-10T10:27:47.747Z,19.30
2018-11-10T10:30:20.584Z,19.70
2018-11-10T10:32:49.550Z,20.30
2018-11-10T10:35:18.197Z,21.20
2018-11-10T10:37:47.277Z,23.20
2018-11-10T10:40:18.629Z,25.30
2018-11-10T10:42:47.525Z,26.60
2018-11-10T10:45:17.918Z,26.80
2018-11-10T10:47:46.364Z,26.40
2018-11-10T10:50:18.174Z,25.90
2018-11-10T10:52:46.509Z,26.60
2018-11-10T10:55:17.815Z,28.90
2018-11-10T10:57:47.071Z,30.50
2018-11-10T11:00:23.890Z,29.60
2018-11-10T11:03:02.603Z,28.40
2018-11-10T11:05:36.187Z,27.40
2018-11-10T11:08:04.541Z,26.50
2018-11-10T11:10:32.871Z,25.40
2018-11-10T11:13:01.221Z,24.60
2018-11-10T11:15:29.671Z,24.50
2018-11-10T11:17:57.880Z,25.70
2018-11-10T11:20:26.247Z,28.00
2018-11-10T11:22:54.574Z,28.90
2018-11-10T11:25:22.955Z,28.50
2018-11-10T11:27:51.341Z,28.20
2018-11-10T11:30:21.420Z,27.10
2018-11-10T11:32:49.819Z,26.00
2018-11-10T11:35:18.261Z,25.40
2018-11-10T11:37:46.607Z,24.60
2018-11-10T11:40:19.372Z,23.60
2018-11-10T11:42:47.698Z,23.60
2018-11-10T11:45:16.779Z,23.50
2018-11-10T11:47:45.088Z,23.40
2018-11-10T11:50:17.309Z,23.00
2018-11-10T11:52:46.095Z,22.60
2018-11-10T11:55:15.614Z,22.10
2018-11-10T11:57:43.997Z,21.50
2018-11-10T12:00:17.240Z,21.10
2018-11-10T12:02:46.050Z,20.90
2018-11-10T12:05:16.473Z,20.90
2018-11-10T12:07:45.299Z,20.90
2018-11-10T12:10:16.851Z,20.70
2018-11-10T12:12:45.223Z,20.40
2018-11-10T12:15:16.359Z,20.00
2018-11-10T12:17:44.595Z,19.80
2018-11-10T12:20:18.049Z,19.40
2018-11-10T12:22:46.575Z,19.10
2018-11-10T12:25:16.085Z,19.00
2018-11-10T12:27:44.823Z,19.00
2018-11-10T12:30:16.582Z,19.00
2018-11-10T12:32:44.922Z,18.90
2018-11-10T12:35:14.031Z,18.80
2018-11-10T12:37:42.860Z,18.80
2018-11-10T12:40:16.339Z,18.70
2018-11-10T12:42:44.712Z,18.50
2018-11-10T12:45:14.925Z,18.40
2018-11-10T12:47:43.664Z,18.20
2018-11-10T12:50:16.408Z,18.10
2018-11-10T12:52:45.388Z,17.90
2018-11-10T12:55:15.696Z,17.70
2018-11-10T12:57:44.572Z,17.40
2018-11-10T13:00:18.556Z,17.30
2018-11-10T13:02:46.914Z,17.20
2018-11-10T13:05:16.115Z,17.10
2018-11-10T13:07:45.576Z,17.00
2018-11-10T13:10:18.598Z,16.70
2018-11-10T13:12:46.949Z,16.50
2018-11-10T13:15:16.140Z,16.20
2018-11-10T13:17:44.475Z,16.00
2018-11-10T13:20:16.692Z,15.80
2018-11-10T13:22:45.024Z,15.60
2018-11-10T13:25:15.158Z,15.60
2018-11-10T13:27:43.450Z,15.60
2018-11-10T13:30:16.459Z,15.50
2018-11-10T13:32:44.797Z,15.50
2018-11-10T13:35:14.428Z,15.40
2018-11-10T13:37:42.844Z,15.50
2018-11-10T13:40:14.152Z,15.50
2018-11-10T13:42:42.451Z,15.60
2018-11-10T13:45:13.666Z,15.30
2018-11-10T13:47:42.015Z,15.10
2018-11-10T13:50:13.187Z,14.90
2018-11-10T13:52:42.326Z,14.90
2018-11-10T13:55:12.184Z,14.90
2018-11-10T13:57:40.753Z,15.00
2018-11-10T14:00:13.244Z,14.90
2018-11-10T14:02:41.718Z,14.80
2018-11-10T14:05:11.738Z,14.90
2018-11-10T14:07:40.063Z,15.00
2018-11-10T14:10:12.407Z,15.00
2018-11-10T14:12:42.273Z,15.00
2018-11-10T14:15:11.957Z,14.90
2018-11-10T14:17:41.023Z,14.90
2018-11-10T14:20:14.105Z,14.80
2018-11-10T14:22:42.472Z,14.80
2018-11-10T14:25:13.882Z,14.90
2018-11-10T14:27:43.017Z,14.90
2018-11-10T14:30:17.639Z,14.90
2018-11-10T14:32:46.295Z,14.90
2018-11-10T14:35:15.837Z,14.90
2018-11-10T14:37:44.236Z,14.80
2018-11-10T14:40:17.583Z,14.80
2018-11-10T14:42:46.344Z,14.80
2018-11-10T14:45:16.742Z,14.60
2018-11-10T14:47:45.396Z,14.60
2018-11-10T14:50:19.067Z,14.50
2018-11-10T14:52:47.560Z,14.50
2018-11-10T14:55:16.623Z,14.40
2018-11-10T14:57:45.016Z,14.30
2018-11-10T15:00:24.667Z,14.30
2018-11-10T15:02:53.039Z,14.20
2018-11-10T15:05:21.400Z,14.10
2018-11-10T15:07:49.734Z,14.00
2018-11-10T15:10:20.309Z,13.80
2018-11-10T15:12:48.807Z,13.80
2018-11-10T15:15:18.164Z,13.70
2018-11-10T15:17:46.946Z,13.60
2018-11-10T15:20:18.903Z,13.50
2018-11-10T15:22:47.319Z,13.40
2018-11-10T15:25:17.695Z,13.40
2018-11-10T15:27:46.016Z,13.40
2018-11-10T15:30:19.973Z,13.30
2018-11-10T15:32:48.699Z,13.30
2018-11-10T15:35:18.490Z,13.20
2018-11-10T15:37:48.091Z,13.00
2018-11-10T15:40:19.527Z,13.00
2018-11-10T15:42:48.007Z,12.90
2018-11-10T15:45:18.282Z,12.90
2018-11-10T15:47:46.616Z,12.90
2018-11-10T15:50:18.898Z,12.90
2018-11-10T15:52:47.272Z,12.90
2018-11-10T15:55:17.162Z,12.80
2018-11-10T15:57:45.498Z,12.80
2018-11-10T16:00:18.113Z,12.80
2018-11-10T16:02:48.332Z,12.80
2018-11-10T16:05:17.051Z,12.80
2018-11-10T16:07:45.467Z,12.70
2018-11-10T16:10:16.927Z,12.70
2018-11-10T16:12:45.391Z,12.80
2018-11-10T16:15:15.919Z,12.90
2018-11-10T16:17:44.287Z,12.80
2018-11-10T16:20:17.262Z,12.80
2018-11-10T16:22:46.955Z,12.80
2018-11-10T16:25:16.459Z,12.90
2018-11-10T16:27:45.035Z,12.80
2018-11-10T16:30:18.392Z,12.80
2018-11-10T16:32:47.130Z,12.80
2018-11-10T16:35:16.864Z,12.70
2018-11-10T16:37:45.210Z,12.60
2018-11-10T16:40:18.195Z,12.50
2018-11-10T16:42:47.300Z,12.40
2018-11-10T16:45:17.303Z,12.40
2018-11-10T16:47:45.679Z,12.40
2018-11-10T16:50:18.994Z,12.40
2018-11-10T16:52:47.379Z,12.50
2018-11-10T16:55:16.897Z,12.50
2018-11-10T16:57:45.131Z,12.60
2018-11-10T17:00:17.762Z,12.50
2018-11-10T17:02:46.060Z,12.40
2018-11-10T17:05:15.339Z,12.40
2018-11-10T17:07:43.743Z,12.50
2018-11-10T17:10:18.741Z,12.40
2018-11-10T17:12:47.076Z,12.30
2018-11-10T17:15:16.630Z,12.30
2018-11-10T17:17:44.991Z,12.30
2018-11-10T17:20:17.649Z,12.30
2018-11-10T17:22:46.069Z,12.30
2018-11-10T17:25:16.116Z,12.20
2018-11-10T17:27:44.676Z,12.30
2018-11-10T17:30:18.452Z,12.30
2018-11-10T17:32:46.812Z,12.30
2018-11-10T17:35:15.999Z,12.30
2018-11-10T17:37:44.638Z,12.20
2018-11-10T17:40:17.280Z,12.20
2018-11-10T17:42:45.786Z,12.20
2018-11-10T17:45:16.293Z,12.20
2018-11-10T17:47:44.704Z,12.10
2018-11-10T17:50:17.641Z,12.10
2018-11-10T17:52:46.045Z,12.10
2018-11-10T17:55:16.251Z,12.00
2018-11-10T17:57:45.135Z,12.00
2018-11-10T18:00:18.459Z,12.00
2018-11-10T18:02:46.762Z,12.00
2018-11-10T18:05:16.238Z,12.00
2018-11-10T18:07:44.739Z,11.90
2018-11-10T18:10:18.338Z,12.00
2018-11-10T18:12:46.865Z,11.90
2018-11-10T18:15:16.358Z,11.80
2018-11-10T18:17:44.875Z,11.80
2018-11-10T18:20:18.632Z,11.80
2018-11-10T18:22:47.331Z,11.80
2018-11-10T18:25:16.607Z,11.90
2018-11-10T18:27:44.954Z,11.90
2018-11-10T18:30:18.152Z,11.90
2018-11-10T18:32:46.570Z,11.90
2018-11-10T18:35:15.887Z,11.90
2018-11-10T18:37:44.206Z,12.00
2018-11-10T18:40:15.459Z,11.90
2018-11-10T18:42:43.767Z,12.00
2018-11-10T18:45:14.112Z,11.90
2018-11-10T18:47:42.747Z,11.80
2018-11-10T18:50:17.465Z,11.70
2018-11-10T18:52:45.791Z,11.70
2018-11-10T18:55:15.545Z,11.60
2018-11-10T18:57:44.439Z,11.60
2018-11-10T19:00:18.143Z,11.70
2018-11-10T19:02:46.492Z,11.60
2018-11-10T19:05:16.464Z,11.60
2018-11-10T19:07:44.807Z,11.60
2018-11-10T19:10:17.807Z,11.50
2018-11-10T19:12:46.184Z,11.50
2018-11-10T19:15:17.373Z,11.40
2018-11-10T19:17:45.696Z,11.40
2018-11-10T19:20:18.649Z,11.40
2018-11-10T19:22:47.001Z,11.40
2018-11-10T19:25:16.143Z,11.40
2018-11-10T19:27:44.494Z,11.40
2018-11-10T19:30:19.455Z,11.40
2018-11-10T19:32:48.738Z,11.40
2018-11-10T19:35:18.137Z,11.40
2018-11-10T19:37:46.813Z,11.40
2018-11-10T19:40:18.899Z,11.30
2018-11-10T19:42:47.538Z,11.30
2018-11-10T19:45:16.960Z,11.40
2018-11-10T19:47:46.154Z,11.30
2018-11-10T19:50:17.422Z,11.30
2018-11-10T19:52:46.082Z,11.30
2018-11-10T19:55:16.993Z,11.20
2018-11-10T19:57:45.388Z,11.20
2018-11-10T20:00:19.741Z,11.20
2018-11-10T20:02:48.102Z,11.20
2018-11-10T20:05:17.111Z,11.20
2018-11-10T20:07:45.504Z,11.20
2018-11-10T20:10:17.073Z,11.30
2018-11-10T20:12:45.558Z,11.30
2018-11-10T20:15:15.682Z,11.30
2018-11-10T20:17:44.191Z,11.30
2018-11-10T20:20:17.346Z,11.20
2018-11-10T20:22:45.735Z,11.20
2018-11-10T20:25:16.547Z,11.20
2018-11-10T20:27:44.890Z,11.20
2018-11-10T20:30:19.234Z,11.20
2018-11-10T20:32:47.736Z,11.30
2018-11-10T20:35:16.866Z,11.30
2018-11-10T20:37:46.625Z,11.30
2018-11-10T20:40:18.564Z,11.30
2018-11-10T20:42:46.937Z,11.40
2018-11-10T20:45:17.445Z,11.30
2018-11-10T20:47:45.926Z,11.40
2018-11-10T20:50:19.720Z,11.40
2018-11-10T20:52:48.056Z,11.40
2018-11-10T20:55:17.364Z,11.40
2018-11-10T20:57:45.811Z,11.40
2018-11-10T21:00:20.473Z,11.40
2018-11-10T21:02:48.829Z,11.40
2018-11-10T21:05:17.734Z,11.50
2018-11-10T21:07:46.067Z,11.70
2018-11-10T21:10:19.161Z,11.80
2018-11-10T21:12:48.298Z,11.80
2018-11-10T21:15:17.657Z,11.80
2018-11-10T21:17:46.135Z,11.80
2018-11-10T21:20:16.093Z,11.90
2018-11-10T21:22:44.722Z,11.90
2018-11-10T21:25:15.959Z,11.90
2018-11-10T21:27:44.548Z,11.90
2018-11-10T21:30:19.318Z,11.90
2018-11-10T21:32:47.971Z,11.90
2018-11-10T21:35:17.040Z,11.90
2018-11-10T21:37:45.290Z,11.90
2018-11-10T21:40:18.459Z,11.90
2018-11-10T21:42:46.848Z,11.90
2018-11-10T21:45:16.971Z,11.80
2018-11-10T21:47:45.555Z,11.70
2018-11-10T21:50:20.039Z,11.70
2018-11-10T21:52:48.358Z,11.70
2018-11-10T21:55:18.446Z,11.70
2018-11-10T21:57:47.261Z,11.60
2018-11-10T22:00:20.704Z,11.60
2018-11-10T22:02:49.347Z,11.50
2018-11-10T22:05:18.190Z,11.50
2018-11-10T22:07:46.483Z,11.40
2018-11-10T22:10:20.361Z,11.30
2018-11-10T22:12:48.681Z,11.30
2018-11-10T22:15:19.298Z,11.30
2018-11-10T22:17:47.747Z,11.20
2018-11-10T22:20:21.316Z,11.20
2018-11-10T22:22:49.705Z,11.20
2018-11-10T22:25:18.235Z,11.20
2018-11-10T22:27:47.947Z,11.20
2018-11-10T22:30:21.016Z,11.20
2018-11-10T22:32:49.926Z,11.20
2018-11-10T22:35:18.358Z,11.40
2018-11-10T22:37:46.736Z,11.40
2018-11-10T22:40:19.418Z,11.60
2018-11-10T22:42:47.935Z,11.70
2018-11-10T22:45:18.467Z,11.70
2018-11-10T22:47:46.792Z,11.70
2018-11-10T22:50:19.841Z,11.60
2018-11-10T22:52:48.243Z,11.50
2018-11-10T22:55:17.088Z,11.40
2018-11-10T22:57:45.434Z,11.30
2018-11-10T23:00:23.623Z,11.40
2018-11-10T23:02:53.231Z,11.40
2018-11-10T23:05:22.050Z,11.40
2018-11-10T23:07:50.405Z,11.40
2018-11-10T23:10:20.805Z,11.40
2018-11-10T23:12:50.214Z,11.40
2018-11-10T23:15:18.568Z,11.40
2018-11-10T23:17:46.894Z,11.40
2018-11-10T23:20:20.321Z,11.40
2018-11-10T23:22:48.669Z,11.50
2018-11-10T23:25:18.089Z,11.50
2018-11-10T23:27:46.452Z,11.50
2018-11-10T23:30:21.774Z,11.50
2018-11-10T23:32:50.184Z,11.50
2018-11-10T23:35:18.516Z,11.40
2018-11-10T23:37:46.872Z,11.40
2018-11-10T23:40:18.828Z,11.40
2018-11-10T23:42:47.299Z,11.40
2018-11-10T23:45:16.512Z,11.30
2018-11-10T23:47:44.856Z,11.30
2018-11-10T23:50:17.921Z,11.30
2018-11-10T23:52:46.297Z,11.30
2018-11-10T23:55:16.032Z,11.20
2018-11-10T23:57:44.360Z,11.20
